Time;durP1;ratioP1;P1;durP2;ratioP2;P2;SDS_P1;SDS_P2;PMS_P1;PMS_P2;Temp;Humidity;BMP_temperature;BMP_pressure;BME280_temperature;BME280_humidity;BME280_pressure;Samples;Min_cycle;Max_cycle;Signal;HPM_P1;HPM_P2
2022/01/23 00:00:05;;;;;;;67.60;38.70;;;;;;;-2.08;70.94;101660.68;110241;1258;22086;-79
2022/01/23 00:03:05;;;;;;;62.40;37.90;;;;;;;-2.09;70.79;101664.67;110139;1258;22030;-78
2022/01/23 00:05:38;;;;;;;62.70;37.10;;;;;;;-2.09;70.72;101665.89;110197;1258;22081;-79
2022/01/23 00:08:20;;;;;;;;;;;;;;;;;;;;;
2022/01/23 00:10:59;;;;;;;71.40;38.90;;;;;;;-2.03;70.95;101655.83;109976;1260;21975;-78
2022/01/23 00:17:17;;;;;;;70.20;39.90;;;;;;;-2.00;70.93;101664.01;110049;1257;23065;-79
2022/01/23 00:19:30;;;;;;;71.70;37.30;;;;;;;-2.03;71.12;101676.21;110195;1260;21980;-79
2022/01/23 00:22:16;;;;;;;71.10;38.60;;;;;;;-2.06;71.14;101677.02;110279;1259;21988;-79
2022/01/23 00:30:41;;;;;;;68.10;38.30;;;;;;;-2.09;71.42;101679.72;110451;1257;23683;-79
2022/01/23 00:33:23;;;;;;;66.50;38.00;;;;;;;-2.07;71.40;101683.27;109839;1258;23037;-78
2022/01/23 00:36:03;;;;;;;67.20;39.10;;;;;;;-2.06;71.31;101678.40;109968;1258;21974;-79
2022/01/23 00:38:38;;;;;;;66.20;41.20;;;;;;;-2.04;71.31;101678.66;110063;1257;22775;-79
2022/01/23 00:41:19;;;;;;;61.30;38.50;;;;;;;-2.01;71.29;101670.80;110344;1260;22014;-79
2022/01/23 00:43:51;;;;;;;72.00;37.40;;;;;;;-1.99;71.42;101666.57;110069;1257;21986;-79
2022/01/23 00:46:29;;;;;;;;;;;;;;;-1.96;71.36;101662.30;110007;1260;23650;-79
2022/01/23 00:49:24;;;;;;;56.60;34.60;;;;;;;-1.98;71.39;101658.25;110182;1257;21988;-79
2022/01/23 00:52:09;;;;;;;62.40;35.00;;;;;;;-1.96;71.57;101659.36;109507;1263;23919;-79
2022/01/23 00:54:38;;;;;;;67.80;34.90;;;;;;;-1.91;71.51;101656.95;109273;1263;21999;-79
2022/01/23 00:57:12;;;;;;;60.40;34.20;;;;;;;-1.87;71.48;101660.45;109235;1264;22461;-79
2022/01/23 00:59:54;;;;;;;63.00;36.00;;;;;;;-1.88;71.32;101662.73;109793;1263;23141;-77
2022/01/23 01:02:27;;;;;;;58.50;33.90;;;;;;;-1.91;71.33;101656.08;109607;1262;24260;-78
2022/01/23 01:04:57;;;;;;;59.20;34.10;;;;;;;-1.92;71.44;101652.33;109612;1263;21996;-77
2022/01/23 01:07:26;;;;;;;51.90;31.80;;;;;;;-1.92;71.46;101656.83;108802;1269;24432;-78
2022/01/23 01:10:00;;;;;;;53.80;32.70;;;;;;;-1.93;71.43;101659.78;108991;1263;23609;-78
2022/01/23 01:12:38;;;;;;;52.20;31.30;;;;;;;-1.92;71.42;101662.15;109248;1263;22032;-79
2022/01/23 01:31:49;;;;;;;50.30;28.90;;;;;;;-1.76;71.81;101663.31;109625;1264;22038;-77
2022/01/23 01:34:33;;;;;;;47.40;28.50;;;;;;;-1.74;71.78;101660.13;109776;1260;23085;-79
2022/01/23 01:37:06;;;;;;;44.10;27.30;;;;;;;-1.73;71.79;101660.42;110250;1258;23605;-79
2022/01/23 01:39:47;;;;;;;51.10;28.90;;;;;;;-1.73;71.79;101657.67;110211;1258;23036;-78
2022/01/23 01:42:17;;;;;;;44.20;27.10;;;;;;;-1.74;71.93;101654.76;110026;1257;22067;-77
2022/01/23 01:44:46;;;;;;;47.70;27.80;;;;;;;-1.74;71.83;101656.34;110035;1258;22047;-78
2022/01/23 01:47:27;;;;;;;50.30;28.80;;;;;;;-1.76;71.79;101654.16;110320;1257;23688;-78
2022/01/23 01:50:07;;;;;;;45.10;27.60;;;;;;;-1.78;71.78;101657.50;110057;1257;21991;-78
2022/01/23 01:52:36;;;;;;;43.30;28.20;;;;;;;-1.77;71.87;101660.09;110013;1257;22001;-77
2022/01/23 01:55:23;;;;;;;42.60;27.20;;;;;;;-1.76;71.80;101657.79;110024;1257;23586;-78
2022/01/23 01:58:05;;;;;;;49.40;29.80;;;;;;;-1.74;71.95;101656.51;110055;1257;23706;-78
2022/01/23 02:01:01;;;;;;;48.90;28.70;;;;;;;-1.72;71.90;101663.83;109530;1261;22136;-78
2022/01/23 02:10:38;;;;;;;43.10;26.70;;;;;;;-1.69;71.91;101679.09;108800;1270;24302;-78
2022/01/23 02:55:58;;;;;;;;;;;;;;;;;;;;;
2022/01/23 02:59:19;;;;;;;35.60;21.40;;;;;;;-1.51;72.33;101659.80;108443;1279;22026;-79
2022/01/23 03:02:41;;;;;;;34.60;22.40;;;;;;;-1.50;72.31;101660.78;108286;1280;22039;-80
2022/01/23 03:09:20;;;;;;;31.30;21.20;;;;;;;-1.46;72.35;101661.48;108727;1274;22457;-78
2022/01/23 03:14:58;;;;;;;34.60;19.90;;;;;;;-1.42;72.51;101662.21;108276;1277;22032;-80
2022/01/23 03:32:40;;;;;;;31.00;20.80;;;;;;;-1.33;72.73;101691.08;109264;1263;23686;-78
2022/01/23 03:35:21;;;;;;;35.90;21.40;;;;;;;-1.28;72.75;101693.48;109920;1261;23700;-78
2022/01/23 03:38:05;;;;;;;35.70;20.80;;;;;;;-1.25;72.73;101699.58;109118;1267;21988;-78
2022/01/23 03:41:06;;;;;;;32.90;20.60;;;;;;;-1.22;72.58;101698.23;109253;1258;22072;-79
2022/01/23 03:44:01;;;;;;;32.00;21.30;;;;;;;-1.19;72.53;101696.05;109971;1257;21968;-79
2022/01/23 03:48:00;;;;;;;28.30;19.50;;;;;;;-1.18;72.56;101692.23;109968;1257;22632;-79
2022/01/23 03:51:01;;;;;;;36.50;22.30;;;;;;;-1.16;72.51;101687.48;109738;1260;22753;-79
2022/01/23 03:54:34;;;;;;;31.70;21.80;;;;;;;-1.13;72.60;101690.46;110021;1259;22001;-78
2022/01/23 03:57:58;;;;;;;37.90;23.50;;;;;;;-1.10;72.52;101686.90;110626;1257;23583;-78
2022/01/23 04:01:12;;;;;;;;;;;;;;;;;;;;;
2022/01/23 04:04:17;;;;;;;36.00;21.50;;;;;;;-1.09;72.70;101698.59;109726;1263;22089;-79
2022/01/23 04:07:04;;;;;;;35.50;22.70;;;;;;;-1.09;72.58;101705.35;109498;1261;23689;-79
2022/01/23 04:09:58;;;;;;;35.40;23.10;;;;;;;-1.12;72.50;101709.96;110261;1257;21976;-78
2022/01/23 04:13:23;;;;;;;36.30;23.30;;;;;;;-1.12;72.61;101705.67;110296;1257;23554;-77
2022/01/23 04:46:04;;;;;;;52.80;39.20;;;;;;;-0.92;72.59;101749.13;109360;1267;22015;-80
2022/01/23 05:05:31;;;;;;;82.40;51.20;;;;;;;-0.90;72.71;101746.64;109171;1270;21990;-80
2022/01/23 05:08:32;;;;;;;110.40;58.20;;;;;;;-0.87;72.69;101744.13;109197;1270;22481;-81
2022/01/23 05:11:58;;;;;;;97.20;60.50;;;;;;;-0.85;72.76;101741.94;109329;1269;22099;-79
2022/01/23 05:15:06;;;;;;;77.70;48.00;;;;;;;-0.82;72.81;101736.46;109306;1268;23629;-80
2022/01/23 05:18:15;;;;;;;;;;;;;;;-0.80;72.72;101740.19;109116;1265;23769;-80
2022/01/23 05:21:49;;;;;;;44.50;27.00;;;;;;;-0.85;72.78;101733.98;109468;1267;22383;-80
2022/01/23 05:25:28;;;;;;;40.40;28.00;;;;;;;-0.85;72.83;101736.77;109717;1266;22046;-80
2022/01/23 05:28:20;;;;;;;51.00;32.40;;;;;;;-0.82;72.86;101745.60;109618;1265;22002;-81
2022/01/23 05:31:55;;;;;;;;;;;;;;;;;;;;;
2022/01/23 05:34:32;;;;;;;58.60;41.30;;;;;;;-0.78;72.73;101755.17;109925;1264;21988;-80
2022/01/23 05:37:48;;;;;;;55.90;39.20;;;;;;;-0.77;72.81;101763.61;109453;1267;23743;-80
2022/01/23 05:40:54;;;;;;;;;;;;;;;;;;;;;
2022/01/23 05:43:49;;;;;;;;;;;;;;;;;;;;;
2022/01/23 05:46:54;;;;;;;;;;;;;;;;;;;;;
2022/01/23 05:50:17;;;;;;;48.30;32.70;;;;;;;-0.75;72.79;101795.69;108909;1270;21997;-79
2022/01/23 05:53:11;;;;;;;48.80;35.60;;;;;;;-0.74;72.75;101795.83;109431;1266;22009;-80
2022/01/23 05:56:33;;;;;;;48.90;32.40;;;;;;;-0.74;72.65;101795.46;109229;1267;21991;-80
2022/01/23 05:59:50;;;;;;;;;;;;;;;;;;;;;
2022/01/23 06:03:25;;;;;;;;;;;;;;;;;;;;;
2022/01/23 06:06:28;;;;;;;53.40;36.90;;;;;;;-0.64;72.84;101801.30;109855;1263;21794;-81
2022/01/23 06:09:19;;;;;;;;;;;;;;;;;;;;;
2022/01/23 06:12:42;;;;;;;;;;;;;;;;;;;;;
2022/01/23 06:15:41;;;;;;;38.80;27.70;;;;;;;-0.58;72.85;101800.39;110442;1257;22383;-80
2022/01/23 06:18:50;;;;;;;;;;;;;;;;;;;;;
2022/01/23 06:22:01;;;;;;;;;;;;;;;;;;;;;
2022/01/23 06:25:05;;;;;;;34.30;23.40;;;;;;;-0.60;72.95;101811.89;110443;1257;21962;-81
2022/01/23 06:28:02;;;;;;;;;;;;;;;;;;;;;
2022/01/23 06:31:25;;;;;;;35.30;23.60;;;;;;;-0.56;72.92;101817.09;110466;1257;22919;-82
2022/01/23 06:34:46;;;;;;;;;;;;;;;;;;;;;
2022/01/23 06:37:58;;;;;;;;;;;;;;;;;;;;;
2022/01/23 06:41:24;;;;;;;36.60;22.30;;;;;;;-0.52;72.81;101825.21;111035;1254;22408;-81
2022/01/23 06:44:41;;;;;;;28.30;21.20;;;;;;;-0.48;72.77;101826.98;110965;1251;22000;-80
2022/01/23 06:47:49;;;;;;;;;;;;;;;;;;;;;
2022/01/23 06:51:09;;;;;;;38.00;24.20;;;;;;;-0.43;72.84;101823.50;110919;1251;24194;-80
2022/01/23 06:54:17;;;;;;;33.90;22.90;;;;;;;-0.43;72.89;101826.95;110647;1254;21990;-79
2022/01/23 06:57:17;;;;;;;;;;;;;;;;;;;;;
2022/01/23 07:00:16;;;;;;;35.40;23.60;;;;;;;-0.45;72.93;101825.32;110288;1254;22900;-80
2022/01/23 07:03:45;;;;;;;;;;;;;;;;;;;;;
2022/01/23 07:07:06;;;;;;;51.70;30.00;;;;;;;-0.42;72.95;101829.04;110695;1253;21979;-79
2022/01/23 07:10:37;;;;;;;50.30;28.80;;;;;;;-0.40;72.86;101831.18;109613;1265;22000;-81
2022/01/23 07:13:56;;;;;;;45.40;28.80;;;;;;;-0.35;72.99;101837.21;109895;1263;22294;-80
2022/01/23 07:17:40;;;;;;;41.30;26.40;;;;;;;-0.29;72.88;101846.50;109958;1260;21994;-79
2022/01/23 07:21:10;;;;;;;35.70;25.00;;;;;;;-0.28;72.78;101853.88;109606;1261;22034;-79
2022/01/23 07:24:25;;;;;;;37.50;25.90;;;;;;;-0.28;72.72;101854.39;109867;1261;22783;-80
2022/01/23 07:30:59;;;;;;;36.00;24.10;;;;;;;-0.30;72.98;101857.09;108934;1270;22101;-78
2022/01/23 07:33:49;;;;;;;44.90;26.70;;;;;;;-0.32;72.85;101862.00;108454;1276;23754;-78
2022/01/23 07:36:52;;;;;;;;;;;;;;;;;;;;;
2022/01/23 07:40:12;;;;;;;35.00;23.90;;;;;;;-0.29;72.77;101868.30;108488;1270;22235;-81
2022/01/23 07:42:45;;;;;;;34.80;23.00;;;;;;;-0.27;72.72;101872.52;108718;1276;24405;-80
2022/01/23 07:45:43;;;;;;;40.10;23.30;;;;;;;-0.23;72.87;101867.36;108627;1270;22167;-79
2022/01/23 07:48:46;;;;;;;31.70;21.80;;;;;;;-0.18;72.71;101869.42;108813;1270;21988;-80
2022/01/23 07:51:38;;;;;;;35.40;23.00;;;;;;;-0.17;72.59;101872.33;109214;1264;21988;-80
2022/01/23 07:54:34;;;;;;;32.00;22.10;;;;;;;-0.15;72.65;101873.27;109143;1266;22581;-78
2022/01/23 07:57:45;;;;;;;32.60;22.80;;;;;;;-0.12;72.68;101874.02;108846;1270;23120;-80
2022/01/23 08:01:01;;;;;;;33.50;21.30;;;;;;;-0.09;72.71;101880.33;109193;1267;22973;-77
2022/01/23 08:03:44;;;;;;;31.80;22.10;;;;;;;-0.09;72.58;101885.34;109691;1263;22767;-79
2022/01/23 08:06:41;;;;;;;35.50;23.00;;;;;;;-0.08;72.49;101894.98;110136;1261;21979;-80
2022/01/23 08:09:35;;;;;;;38.00;26.70;;;;;;;-0.05;72.43;101900.07;109224;1267;23684;-79
2022/01/23 08:12:43;;;;;;;48.00;29.70;;;;;;;0.00;72.38;101904.01;109535;1267;23058;-79
2022/01/23 08:15:49;;;;;;;;;;;;;;;;;;;;;
2022/01/23 08:18:41;;;;;;;48.10;32.80;;;;;;;0.15;72.23;101913.46;109276;1267;21995;-80
2022/01/23 08:21:43;;;;;;;42.10;30.60;;;;;;;0.19;71.91;101914.49;109515;1266;22990;-78
2022/01/23 08:24:21;;;;;;;44.30;30.70;;;;;;;0.23;71.99;101918.17;109243;1267;22100;-79
2022/01/23 08:27:24;;;;;;;42.70;30.40;;;;;;;0.30;72.13;101916.85;108911;1270;22947;-79
2022/01/23 08:30:38;;;;;;;;;;;;;;;;;;;;;
2022/01/23 08:33:20;;;;;;;48.70;35.20;;;;;;;0.48;72.71;101929.63;109573;1266;22053;-79
2022/01/23 08:36:32;;;;;;;47.90;33.50;;;;;;;0.64;72.50;101930.14;109301;1265;22062;-80
2022/01/23 08:39:11;;;;;;;51.10;36.70;;;;;;;0.75;72.09;101932.29;109144;1270;22022;-78
2022/01/23 08:42:52;;;;;;;49.50;30.70;;;;;;;0.88;71.90;101938.66;109170;1269;22779;-79
2022/01/23 08:45:51;;;;;;;48.00;30.40;;;;;;;0.99;71.58;101939.92;109118;1266;22788;-79
2022/01/23 08:49:44;;;;;;;46.00;33.90;;;;;;;1.08;71.26;101949.39;110334;1260;22916;-80
2022/01/23 08:52:36;;;;;;;47.80;36.20;;;;;;;1.18;71.31;101953.30;110088;1259;21990;-79
2022/01/23 08:55:45;;;;;;;;;;;;;;;;;;;;;
2022/01/23 08:58:31;;;;;;;59.00;40.90;;;;;;;1.25;70.53;101958.52;110255;1259;22525;-79
2022/01/23 09:01:26;;;;;;;57.80;40.90;;;;;;;1.29;70.34;101966.52;109825;1259;21988;-79
2022/01/23 09:04:00;;;;;;;59.10;41.00;;;;;;;1.36;70.23;101974.54;109881;1260;23060;-83
2022/01/23 09:07:22;;;;;;;51.00;35.10;;;;;;;1.42;69.81;101977.77;109875;1260;23031;-80
2022/01/23 09:10:25;;;;;;;50.60;35.10;;;;;;;1.47;69.54;101980.80;109815;1260;21992;-81
2022/01/23 09:14:21;;;;;;;;;;;;;;;;;;;;;
2022/01/23 09:17:32;;;;;;;52.30;36.20;;;;;;;1.58;69.04;101970.59;109179;1267;22145;-79
2022/01/23 09:20:36;;;;;;;;;;;;;;;;;;;;;
2022/01/23 09:23:38;;;;;;;49.30;36.90;;;;;;;1.68;68.71;101971.51;109045;1270;23058;-79
2022/01/23 09:26:33;;;;;;;56.00;41.10;;;;;;;1.67;68.18;101975.56;109294;1266;21983;-80
2022/01/23 09:29:51;;;;;;;56.90;40.80;;;;;;;1.62;67.82;101977.70;109173;1267;22735;-80
2022/01/23 09:32:35;;;;;;;71.40;33.60;;;;;;;1.61;67.70;101978.95;109579;1263;22032;-80
2022/01/23 09:35:25;;;;;;;58.90;37.70;;;;;;;1.61;67.35;101982.09;108991;1270;21994;-79
2022/01/23 09:38:12;;;;;;;;;;;;;;;;;;;;;
2022/01/23 09:41:33;;;;;;;61.20;42.80;;;;;;;1.64;67.28;101983.34;108802;1273;22073;-80
2022/01/23 09:45:13;;;;;;;62.30;42.70;;;;;;;1.68;67.27;101984.20;108879;1273;22068;-80
2022/01/23 09:48:01;;;;;;;56.20;37.30;;;;;;;1.70;67.02;101982.39;108412;1276;21998;-80
2022/01/23 09:51:05;;;;;;;;;;;;;;;;;;;;;
2022/01/23 09:53:46;;;;;;;71.80;51.30;;;;;;;1.67;66.71;101990.50;108830;1273;23618;-79
2022/01/23 09:56:29;;;;;;;62.30;44.20;;;;;;;1.69;66.82;101998.56;109235;1264;22003;-79
2022/01/23 09:59:33;;;;;;;54.50;38.20;;;;;;;1.75;66.84;102000.04;109460;1263;21980;-80
2022/01/23 10:02:36;;;;;;;56.40;37.90;;;;;;;1.73;66.50;101992.64;109313;1267;23672;-81
2022/01/23 10:05:32;;;;;;;50.60;34.20;;;;;;;1.77;66.53;101989.69;109305;1266;23871;-79
2022/01/23 10:08:17;;;;;;;58.80;45.90;;;;;;;1.88;66.74;101988.48;109314;1267;21985;-82
2022/01/23 10:11:23;;;;;;;60.40;41.40;;;;;;;2.04;66.79;101983.89;109249;1269;21992;-80
2022/01/23 10:14:52;;;;;;;72.00;52.40;;;;;;;2.12;66.54;101981.63;109257;1270;21999;-80
2022/01/23 10:17:36;;;;;;;69.80;50.70;;;;;;;2.19;66.34;101979.20;109186;1270;23597;-80
2022/01/23 10:24:24;;;;;;;53.00;37.10;;;;;;;2.14;65.40;101975.98;108718;1273;22396;-80
2022/01/23 10:27:17;;;;;;;54.80;37.30;;;;;;;2.13;65.32;101973.77;108962;1273;22044;-80
2022/01/23 10:29:54;;;;;;;66.30;49.30;;;;;;;2.16;65.37;101976.40;108487;1275;23900;-81
2022/01/23 10:32:34;;;;;;;60.00;43.60;;;;;;;2.21;65.17;101973.02;108679;1275;22486;-80
2022/01/23 10:35:14;;;;;;;56.60;40.60;;;;;;;2.24;64.78;101976.36;108825;1274;22035;-80
2022/01/23 10:37:55;;;;;;;56.10;40.30;;;;;;;2.24;64.44;101981.40;109118;1267;22002;-80
2022/01/23 10:40:48;;;;;;;57.90;42.50;;;;;;;2.23;64.06;101982.99;109375;1267;21983;-81
2022/01/23 10:49:56;;;;;;;66.00;42.50;;;;;;;2.15;63.96;101983.40;109111;1270;22002;-80
2022/01/23 10:52:50;;;;;;;103.90;57.50;;;;;;;2.09;63.95;101981.74;109126;1270;22008;-80
2022/01/23 10:55:51;;;;;;;97.50;55.80;;;;;;;2.08;63.88;101980.58;108983;1271;22001;-78
2022/01/23 10:58:35;;;;;;;;;;;;;;;;;;;;;
2022/01/23 11:01:12;;;;;;;67.90;40.00;;;;;;;2.14;63.80;101979.96;109734;1250;21959;-81
2022/01/23 11:04:16;;;;;;;62.20;37.50;;;;;;;2.16;63.61;101977.08;110988;1251;23043;-79
2022/01/23 11:07:24;;;;;;;58.80;38.90;;;;;;;2.20;63.60;101976.89;111014;1251;21969;-80
2022/01/23 11:10:28;;;;;;;72.90;46.50;;;;;;;2.25;63.57;101976.64;111036;1251;23714;-80
2022/01/23 11:19:11;;;;;;;63.60;43.80;;;;;;;2.62;63.54;101977.62;109882;1262;23617;-80
2022/01/23 11:22:38;;;;;;;59.70;40.10;;;;;;;2.80;63.60;101979.33;109428;1264;21986;-79
2022/01/23 11:25:31;;;;;;;48.80;34.10;;;;;;;2.91;62.94;101981.89;109624;1263;24064;-79
2022/01/23 11:28:06;;;;;;;50.20;33.90;;;;;;;2.93;62.14;101983.53;109909;1261;22714;-79
2022/01/23 11:30:48;;;;;;;47.20;32.30;;;;;;;2.91;61.75;101988.36;110147;1259;21960;-79
2022/01/23 11:33:34;;;;;;;;;;;;;;;;;;;;;
2022/01/23 11:36:20;;;;;;;44.10;31.00;;;;;;;2.82;61.14;101993.68;110372;1256;23681;-80
2022/01/23 11:39:31;;;;;;;;;;;;;;;;;;;;;
2022/01/23 11:53:43;;;;;;;42.20;29.60;;;;;;;2.70;61.15;102001.55;108810;1270;22049;-78
2022/01/23 11:54:14;;;;;;;36.80;25.80;;;;;;;2.69;60.90;102002.31;108447;1276;23621;-79
2022/01/23 11:56:49;;;;;;;36.40;27.40;;;;;;;2.67;60.66;102001.91;108680;1270;22781;-79
2022/01/23 11:59:59;;;;;;;43.00;28.70;;;;;;;2.62;60.47;101997.94;108819;1270;22805;-80
2022/01/23 12:02:39;;;;;;;45.60;29.50;;;;;;;2.60;60.24;101993.39;108700;1270;22005;-80
2022/01/23 12:05:34;;;;;;;;;;;;;;;;;;;;;
2022/01/23 12:08:36;;;;;;;47.30;34.40;;;;;;;2.59;60.37;101989.93;109608;1259;22076;-80
2022/01/23 12:11:53;;;;;;;50.80;35.30;;;;;;;2.57;60.43;101992.63;110402;1259;22436;-80
2022/01/23 12:18:33;;;;;;;44.30;32.70;;;;;;;2.64;61.05;101996.80;110531;1254;23039;-80
2022/01/23 12:21:28;;;;;;;41.40;29.80;;;;;;;2.64;60.64;101984.45;110689;1254;22074;-80
2022/01/23 12:24:19;;;;;;;;;;;;;;;;;;;;;
2022/01/23 12:27:27;;;;;;;38.30;28.00;;;;;;;2.55;60.30;101984.54;111081;1249;21972;-80
2022/01/23 12:30:16;;;;;;;41.00;29.80;;;;;;;2.52;60.24;101985.08;110430;1256;22761;-79
2022/01/23 12:33:32;;;;;;;;;;;;;;;;;;;;;
2022/01/23 12:36:37;;;;;;;;;;;;;;;2.54;60.30;101993.66;110453;1256;21956;-79
2022/01/23 12:39:20;;;;;;;54.80;34.50;;;;;;;2.48;60.42;101999.34;110541;1256;21978;-80
2022/01/23 12:42:05;;;;;;;75.30;53.50;;;;;;;2.49;60.34;101997.91;110714;1255;23667;-79
2022/01/23 12:44:44;;;;;;;72.40;51.00;;;;;;;2.53;60.36;101999.65;110555;1260;23530;-79
2022/01/23 12:47:55;;;;;;;;;;;;;;;;;;;;;
2022/01/23 12:50:59;;;;;;;;;;;;;;;;;;;;;
2022/01/23 12:57:28;;;;;;;66.30;44.70;;;;;;;2.64;60.33;101987.42;109213;1270;22053;-83
2022/01/23 13:00:27;;;;;;;;;;;;;;;;;;;;;
2022/01/23 13:03:25;;;;;;;;;;;;;;;;;;;;;
2022/01/23 13:06:49;;;;;;;58.30;41.90;;;;;;;2.73;60.24;101994.61;109333;1273;22516;-84
2022/01/23 13:09:58;;;;;;;52.40;36.80;;;;;;;2.72;60.08;102000.09;109080;1270;22008;-84
2022/01/23 13:12:54;;;;;;;50.60;36.80;;;;;;;2.66;59.77;102000.57;109104;1270;22010;-84
2022/01/23 13:16:12;;;;;;;45.90;33.10;;;;;;;2.60;59.82;102001.39;108934;1273;22124;-85
2022/01/23 13:28:39;;;;;;;41.70;30.50;;;;;;;2.47;59.70;102014.38;109219;1270;22098;-83
2022/01/23 13:31:16;;;;;;;46.80;30.50;;;;;;;2.47;59.76;102019.92;109317;1264;22158;-82
2022/01/23 13:34:40;;;;;;;42.00;31.50;;;;;;;2.44;59.69;102024.05;109632;1264;22783;-83
2022/01/23 13:37:26;;;;;;;44.00;32.20;;;;;;;2.44;59.81;102026.66;109759;1262;22233;-82
2022/01/23 13:40:23;;;;;;;51.10;38.70;;;;;;;2.46;59.73;102025.36;109882;1261;21975;-83
2022/01/23 13:51:10;;;;;;;37.30;26.30;;;;;;;2.54;59.60;102016.08;109690;1263;21980;-81
2022/01/23 13:53:33;;;;;;;47.40;34.20;;;;;;;2.54;59.52;102018.87;109852;1259;23602;-79
2022/01/23 14:03:16;;;;;;;50.00;34.90;;;;;;;2.40;59.06;102022.70;109588;1267;22018;-81
2022/01/23 14:06:04;;;;;;;41.30;28.00;;;;;;;2.36;59.18;102022.70;110329;1261;23601;-81
2022/01/23 14:09:13;;;;;;;46.20;31.20;;;;;;;2.34;59.18;102023.64;109667;1263;22784;-80
2022/01/23 14:11:49;;;;;;;46.50;28.90;;;;;;;2.32;59.05;102029.30;109631;1263;22509;-81
2022/01/23 14:14:30;;;;;;;44.90;31.70;;;;;;;2.30;58.86;102035.70;109366;1264;23597;-81
2022/01/23 14:17:17;;;;;;;42.90;26.30;;;;;;;2.26;58.64;102036.06;109511;1265;22005;-80
2022/01/23 14:20:09;;;;;;;41.60;24.80;;;;;;;2.19;58.59;102037.76;109574;1265;21998;-80
2022/01/23 14:22:47;;;;;;;35.60;22.30;;;;;;;2.14;58.48;102040.97;109599;1267;22360;-80
2022/01/23 14:26:18;;;;;;;30.70;21.30;;;;;;;2.09;58.38;102046.27;109699;1264;21960;-80
2022/01/23 14:29:06;;;;;;;41.30;22.00;;;;;;;2.07;58.52;102045.28;109097;1270;22262;-80
2022/01/23 14:31:38;;;;;;;33.50;21.10;;;;;;;2.08;58.56;102047.66;108971;1268;21994;-80
2022/01/23 14:34:24;;;;;;;30.60;20.30;;;;;;;2.09;58.43;102048.52;109250;1266;22306;-80
2022/01/23 14:37:01;;;;;;;33.10;22.70;;;;;;;2.09;58.37;102046.58;110081;1256;324889;-79
2022/01/23 14:39:52;;;;;;;33.90;21.30;;;;;;;2.07;58.23;102049.98;109706;1261;23622;-80
2022/01/23 14:42:28;;;;;;;31.60;19.70;;;;;;;2.04;58.17;102053.23;109567;1263;22780;-80
2022/01/23 14:45:23;;;;;;;33.50;21.90;;;;;;;2.03;58.09;102058.17;109821;1264;23067;-80
2022/01/23 14:48:06;;;;;;;35.80;20.10;;;;;;;1.99;58.05;102061.45;110568;1256;23681;-80
2022/01/23 14:50:44;;;;;;;34.70;21.80;;;;;;;1.96;58.01;102062.48;109896;1261;22396;-80
2022/01/23 14:53:19;;;;;;;39.80;22.20;;;;;;;1.95;58.14;102063.05;110122;1262;21988;-79
2022/01/23 14:56:12;;;;;;;75.90;55.80;;;;;;;1.95;58.21;102061.66;109979;1261;21981;-80
2022/01/23 14:58:50;;;;;;;61.90;50.20;;;;;;;1.97;58.32;102062.80;110532;1256;24447;-80
2022/01/23 15:01:34;;;;;;;57.00;47.20;;;;;;;2.00;58.31;102064.92;110131;1259;21971;-79
2022/01/23 15:04:22;;;;;;;;;;;;;;;;;;;;;
2022/01/23 15:07:13;;;;;;;45.70;35.40;;;;;;;2.00;57.87;102062.14;110359;1258;22485;-79
2022/01/23 15:10:05;;;;;;;41.60;32.00;;;;;;;1.98;57.60;102067.43;110500;1254;23691;-79
2022/01/23 15:13:02;;;;;;;43.00;32.40;;;;;;;1.95;57.36;102065.30;109731;1260;22617;-79
2022/01/23 15:16:06;;;;;;;43.40;33.00;;;;;;;1.91;57.11;102065.65;110274;1260;23765;-79
2022/01/23 15:18:39;;;;;;;47.80;34.20;;;;;;;1.88;56.98;102063.55;110092;1258;22020;-79
2022/01/23 15:21:14;;;;;;;50.50;36.80;;;;;;;1.87;56.94;102061.88;109832;1260;21993;-79
2022/01/23 15:23:55;;;;;;;55.60;38.20;;;;;;;1.84;56.71;102059.53;109938;1261;21985;-78
2022/01/23 15:26:34;;;;;;;60.50;40.20;;;;;;;1.81;56.72;102060.72;110054;1262;21945;-80
2022/01/23 15:29:05;;;;;;;60.60;43.20;;;;;;;1.78;56.57;102057.07;110208;1260;23044;-79
2022/01/23 15:31:37;;;;;;;74.70;52.30;;;;;;;1.74;56.62;102053.92;110000;1260;21986;-79
2022/01/23 15:34:07;;;;;;;84.90;59.20;;;;;;;1.72;56.69;102050.71;109935;1260;23044;-78
2022/01/23 15:36:47;;;;;;;78.50;58.50;;;;;;;1.70;56.75;102053.95;109908;1257;22428;-79
2022/01/23 15:39:20;;;;;;;77.80;53.00;;;;;;;1.66;56.76;102052.19;110186;1256;22006;-80
2022/01/23 15:41:50;;;;;;;73.80;48.90;;;;;;;1.64;56.82;102057.86;110223;1256;22476;-80
2022/01/23 15:44:20;;;;;;;75.70;47.70;;;;;;;1.61;56.76;102055.89;110507;1257;22054;-80
2022/01/23 15:46:50;;;;;;;81.80;51.40;;;;;;;1.57;56.74;102056.23;110560;1257;22108;-80
2022/01/23 15:49:22;;;;;;;86.60;53.00;;;;;;;1.53;56.84;102062.17;109816;1260;22056;-80
2022/01/23 15:51:54;;;;;;;90.80;55.10;;;;;;;1.48;56.89;102062.91;109887;1260;21989;-81
2022/01/23 15:54:27;;;;;;;88.70;52.20;;;;;;;1.44;56.91;102063.95;109662;1261;21994;-80
2022/01/23 15:56:57;;;;;;;86.80;51.90;;;;;;;1.40;57.03;102067.40;109745;1256;23594;-79
2022/01/23 15:59:29;;;;;;;81.70;47.60;;;;;;;1.38;57.21;102067.16;110565;1256;22036;-80
2022/01/23 16:01:58;;;;;;;83.40;49.50;;;;;;;1.35;57.25;102072.81;110327;1255;21992;-80
2022/01/23 16:04:32;;;;;;;82.80;48.60;;;;;;;1.32;57.30;102069.48;110145;1256;23792;-80
2022/01/23 16:07:09;;;;;;;76.80;49.10;;;;;;;1.30;57.39;102066.48;109808;1256;23633;-80
2022/01/23 16:09:38;;;;;;;77.30;49.50;;;;;;;1.27;57.46;102060.85;110419;1256;23036;-80
2022/01/23 16:12:08;;;;;;;83.80;48.60;;;;;;;1.26;57.60;102061.06;110694;1256;22099;-81
2022/01/23 16:14:57;;;;;;;78.90;51.20;;;;;;;1.25;57.66;102055.20;110396;1256;23147;-79
2022/01/23 16:17:26;;;;;;;89.70;50.10;;;;;;;1.26;57.67;102058.49;109425;1262;21997;-80
2022/01/23 16:20:00;;;;;;;87.30;56.50;;;;;;;1.27;57.72;102058.98;109739;1262;22008;-79
2022/01/23 16:22:30;;;;;;;90.30;59.10;;;;;;;1.27;57.82;102058.11;109757;1261;21988;-78
2022/01/23 16:25:01;;;;;;;87.90;57.30;;;;;;;1.27;58.11;102060.34;109721;1256;21982;-80
2022/01/23 16:27:32;;;;;;;92.40;55.40;;;;;;;1.25;58.05;102063.04;110405;1256;22155;-80
2022/01/23 16:30:21;;;;;;;79.40;51.30;;;;;;;1.22;58.28;102060.54;110335;1258;22005;-79
2022/01/23 16:32:56;;;;;;;74.40;47.40;;;;;;;1.20;58.40;102065.50;109765;1260;22029;-79
2022/01/23 16:35:27;;;;;;;69.10;45.10;;;;;;;1.17;58.54;102073.96;109960;1256;22858;-79
2022/01/23 16:37:59;;;;;;;73.00;46.40;;;;;;;1.14;58.59;102076.16;110339;1254;21999;-79
2022/01/23 16:40:29;;;;;;;78.90;53.40;;;;;;;1.11;58.72;102083.75;110470;1256;22392;-80
2022/01/23 16:42:59;;;;;;;70.90;43.50;;;;;;;1.08;58.87;102084.40;110088;1260;21996;-80
2022/01/23 16:45:30;;;;;;;65.00;41.20;;;;;;;1.05;58.96;102086.62;110277;1260;21991;-79
2022/01/23 16:48:04;;;;;;;74.30;44.30;;;;;;;1.03;59.12;102090.68;109244;1267;23071;-79
2022/01/23 16:50:38;;;;;;;78.70;49.00;;;;;;;1.02;59.21;102092.27;109304;1265;22075;-80
2022/01/23 16:53:08;;;;;;;81.10;51.40;;;;;;;1.04;59.38;102094.80;109086;1267;21973;-79
2022/01/23 16:55:42;;;;;;;101.50;60.80;;;;;;;1.07;59.50;102101.27;109172;1267;23057;-81
2022/01/23 16:58:12;;;;;;;96.50;64.00;;;;;;;1.10;59.55;102105.28;109382;1267;22358;-81
2022/01/23 17:00:42;;;;;;;122.70;69.60;;;;;;;1.13;59.63;102107.60;109366;1267;23695;-81
2022/01/23 17:03:14;;;;;;;128.10;75.60;;;;;;;1.15;59.68;102107.53;109440;1265;21971;-80
2022/01/23 17:05:45;;;;;;;125.40;75.40;;;;;;;1.16;59.73;102110.27;109446;1262;22443;-80
2022/01/23 17:08:17;;;;;;;135.00;79.60;;;;;;;1.16;59.81;102108.36;110523;1250;23058;-81
2022/01/23 17:10:49;;;;;;;128.10;75.60;;;;;;;1.15;59.82;102102.67;111109;1250;21957;-79
2022/01/23 17:13:20;;;;;;;;;;;;;;;1.15;59.84;102104.58;111322;1249;21952;-79
2022/01/23 17:15:52;;;;;;;113.70;70.00;;;;;;;1.10;59.98;102107.05;111112;1250;22423;-78
2022/01/23 17:18:31;;;;;;;113.40;71.60;;;;;;;1.08;60.19;102106.96;111019;1250;23413;-79
2022/01/23 17:21:01;;;;;;;117.20;72.70;;;;;;;1.08;60.16;102107.13;111175;1250;21984;-80
2022/01/23 17:23:31;;;;;;;111.60;71.70;;;;;;;1.08;60.14;102111.09;110724;1253;22002;-80